createdAt,value
2023-01-22T00:02:21.805Z,100719.94
2023-01-22T00:04:51.509Z,100713.13
2023-01-22T00:07:21.129Z,100721.53
2023-01-22T00:09:53.232Z,100720.50
2023-01-22T00:12:22.777Z,100725.16
2023-01-22T00:14:52.782Z,100727.69
2023-01-22T00:17:22.380Z,100726.00
2023-01-22T00:19:51.964Z,100719.25
2023-01-22T00:22:21.590Z,100719.22
2023-01-22T00:24:53.692Z,100724.06
2023-01-22T00:27:23.223Z,100721.06
2023-01-22T00:29:52.806Z,100728.19
2023-01-22T00:32:22.880Z,100734.69
2023-01-22T00:34:54.964Z,100725.47
2023-01-22T00:37:24.849Z,100729.53
2023-01-22T00:39:56.950Z,100724.28
2023-01-22T00:42:26.579Z,100731.72
2023-01-22T00:44:56.436Z,100732.34
2023-01-22T00:47:25.930Z,100730.03
2023-01-22T00:49:55.717Z,100730.13
2023-01-22T00:52:25.306Z,100720.22
2023-01-22T00:54:57.380Z,100715.41
2023-01-22T00:57:27.203Z,100719.75
2023-01-22T00:59:56.762Z,100719.78
2023-01-22T01:02:26.413Z,100715.56
2023-01-22T01:04:56.734Z,100717.94
2023-01-22T01:07:26.555Z,100707.13
2023-01-22T01:09:58.692Z,100707.13
2023-01-22T01:12:28.246Z,100714.22
2023-01-22T01:14:57.959Z,100709.69
2023-01-22T01:17:27.520Z,100713.69
2023-01-22T01:19:57.162Z,100712.19
2023-01-22T01:22:26.763Z,100707.00
2023-01-22T01:24:58.867Z,100706.47
2023-01-22T01:27:31.618Z,100707.63
2023-01-22T01:30:01.461Z,100709.81
2023-01-22T01:32:31.045Z,100699.69
2023-01-22T01:35:00.913Z,100701.91
2023-01-22T01:37:30.495Z,100706.16
2023-01-22T01:40:03.494Z,100701.06
2023-01-22T01:42:35.466Z,100705.13
2023-01-22T01:45:24.593Z,100709.84
2023-01-22T01:47:57.747Z,100706.91
2023-01-22T01:50:29.736Z,100721.78
2023-01-22T01:53:01.797Z,100707.16
2023-01-22T01:55:37.262Z,100713.84
2023-01-22T01:58:14.671Z,100711.44
2023-01-22T02:00:47.255Z,100711.13
2023-01-22T02:03:16.957Z,100716.88
2023-01-22T02:05:46.560Z,100713.16
2023-01-22T02:08:17.615Z,100717.19
2023-01-22T02:10:49.712Z,100713.16
2023-01-22T02:13:24.435Z,100718.72
2023-01-22T02:15:54.522Z,100717.00
2023-01-22T02:18:24.776Z,100724.94
2023-01-22T02:20:59.082Z,100714.84
2023-01-22T02:23:30.656Z,100718.94
2023-01-22T02:26:00.850Z,100718.56
2023-01-22T02:28:30.416Z,100715.56
2023-01-22T02:30:59.966Z,100718.94
2023-01-22T02:33:29.741Z,100718.22
2023-01-22T02:36:02.275Z,100726.66
2023-01-22T02:38:31.893Z,100722.78
2023-01-22T02:41:02.086Z,100722.59
2023-01-22T02:43:33.360Z,100720.41
2023-01-22T02:46:02.941Z,100720.59
2023-01-22T02:48:32.529Z,100713.22
2023-01-22T02:51:04.716Z,100713.56
2023-01-22T02:53:34.551Z,100717.22
2023-01-22T02:56:08.505Z,100720.13
2023-01-22T02:58:38.497Z,100723.66
2023-01-22T03:01:20.634Z,100719.59
2023-01-22T03:03:54.418Z,100725.28
2023-01-22T03:06:28.863Z,100720.09
2023-01-22T03:09:03.301Z,100723.31
2023-01-22T03:11:39.640Z,100718.41
2023-01-22T03:14:26.499Z,100726.81
2023-01-22T03:17:09.502Z,100726.34
2023-01-22T03:19:51.600Z,100729.66
2023-01-22T03:22:24.589Z,100732.34
2023-01-22T03:24:55.114Z,100740.13
2023-01-22T03:27:28.858Z,100732.34
2023-01-22T03:29:58.499Z,100727.13
2023-01-22T03:32:28.699Z,100727.81
2023-01-22T03:34:58.308Z,100729.50
2023-01-22T03:37:34.222Z,100731.34
2023-01-22T03:40:04.070Z,100729.84
2023-01-22T03:42:40.260Z,100736.72
2023-01-22T03:45:11.208Z,100733.88
2023-01-22T03:47:40.899Z,100731.34
2023-01-22T03:50:24.198Z,100738.78
2023-01-22T03:52:57.893Z,100739.13
2023-01-22T03:55:28.016Z,100731.69
2023-01-22T03:57:57.572Z,100743.69
2023-01-22T04:00:27.552Z,100740.97
2023-01-22T04:02:57.186Z,100734.25
2023-01-22T04:05:32.599Z,100729.38
2023-01-22T04:08:05.095Z,100726.69
2023-01-22T04:10:35.745Z,100727.66
2023-01-22T04:13:06.269Z,100731.72
2023-01-22T04:15:36.936Z,100734.56
2023-01-22T04:18:16.174Z,100739.94
2023-01-22T04:21:02.612Z,100740.13
2023-01-22T04:23:40.106Z,100750.19
2023-01-22T04:26:09.695Z,100752.84
2023-01-22T04:28:39.326Z,100749.84
2023-01-22T04:31:10.227Z,100750.22
2023-01-22T04:34:02.483Z,100748.56
2023-01-22T04:36:34.922Z,100735.75
2023-01-22T04:39:07.226Z,100731.06
2023-01-22T04:41:36.792Z,100737.59
2023-01-22T04:44:06.710Z,100746.00
2023-01-22T04:46:36.804Z,100748.53
2023-01-22T04:49:06.545Z,100750.16
2023-01-22T04:51:36.314Z,100751.88
2023-01-22T04:54:09.296Z,100753.19
2023-01-22T04:56:39.122Z,100755.94
2023-01-22T04:59:09.017Z,100755.88
2023-01-22T05:01:38.731Z,100754.41
2023-01-22T05:04:08.540Z,100754.25
2023-01-22T05:06:38.122Z,100767.38
2023-01-22T05:09:10.431Z,100773.25
2023-01-22T05:11:53.396Z,100771.06
2023-01-22T05:14:23.506Z,100773.59
2023-01-22T05:16:53.183Z,100772.41
2023-01-22T05:19:22.912Z,100769.56
2023-01-22T05:21:52.548Z,100766.56
2023-01-22T05:24:25.431Z,100770.25
2023-01-22T05:26:55.313Z,100774.13
2023-01-22T05:29:31.501Z,100773.25
2023-01-22T05:32:13.890Z,100783.34
2023-01-22T05:34:48.041Z,100782.19
2023-01-22T05:37:17.606Z,100779.50
2023-01-22T05:39:49.736Z,100790.94
2023-01-22T05:42:21.039Z,100786.53
2023-01-22T05:44:52.586Z,100789.78
2023-01-22T05:47:25.165Z,100791.59
2023-01-22T05:50:20.898Z,100797.34
2023-01-22T05:52:58.457Z,100791.53
2023-01-22T05:55:31.725Z,100804.44
2023-01-22T05:58:01.301Z,100808.78
2023-01-22T06:00:31.256Z,100814.59
2023-01-22T06:03:04.407Z,100806.31
2023-01-22T06:05:44.119Z,100810.19
2023-01-22T06:08:13.841Z,100813.94
2023-01-22T06:10:53.162Z,100809.69
2023-01-22T06:13:24.465Z,100806.47
2023-01-22T06:15:58.058Z,100807.31
2023-01-22T06:18:53.421Z,100812.25
2023-01-22T06:21:23.015Z,100810.81
2023-01-22T06:23:52.661Z,100808.22
2023-01-22T06:26:25.305Z,100816.31
2023-01-22T06:28:55.318Z,100814.16
2023-01-22T06:31:25.393Z,100812.97
2023-01-22T06:33:56.127Z,100825.28
2023-01-22T06:36:25.808Z,100819.72
2023-01-22T06:38:56.539Z,100824.25
2023-01-22T06:41:40.986Z,100822.88
2023-01-22T06:44:13.511Z,100829.41
2023-01-22T06:46:43.235Z,100837.50
2023-01-22T06:49:19.599Z,100844.25
2023-01-22T06:51:49.159Z,100844.53
2023-01-22T06:54:18.780Z,100851.53
2023-01-22T06:56:50.927Z,100842.81
2023-01-22T06:59:23.443Z,100845.56
2023-01-22T07:01:52.988Z,100850.84
2023-01-22T07:04:22.485Z,100856.34
2023-01-22T07:06:52.029Z,100853.22
2023-01-22T07:09:21.612Z,100854.84
2023-01-22T07:11:53.761Z,100854.44
2023-01-22T07:14:36.176Z,100852.16
2023-01-22T07:17:06.261Z,100853.25
2023-01-22T07:19:35.796Z,100865.69
2023-01-22T07:22:05.333Z,100853.03
2023-01-22T07:24:34.855Z,100862.56
2023-01-22T07:27:06.975Z,100857.03
2023-01-22T07:29:36.491Z,100859.69
2023-01-22T07:32:06.077Z,100859.34
2023-01-22T07:34:37.415Z,100868.81
2023-01-22T07:37:07.476Z,100876.47
2023-01-22T07:39:37.004Z,100865.50
2023-01-22T07:42:09.221Z,100874.00
2023-01-22T07:44:40.440Z,100875.88
2023-01-22T07:47:10.484Z,100883.91
2023-01-22T07:49:40.098Z,100877.84
2023-01-22T07:52:09.647Z,100877.47
2023-01-22T07:54:39.189Z,100871.34
2023-01-22T07:57:15.350Z,100872.31
2023-01-22T07:59:45.004Z,100882.66
2023-01-22T08:02:15.984Z,100879.47
2023-01-22T08:04:45.687Z,100878.25
2023-01-22T08:07:19.382Z,100880.63
2023-01-22T08:09:48.918Z,100884.91
2023-01-22T08:12:21.066Z,100891.72
2023-01-22T08:14:50.648Z,100889.97
2023-01-22T08:17:20.166Z,100889.38
2023-01-22T08:19:49.693Z,100891.66
2023-01-22T08:22:19.237Z,100898.13
2023-01-22T08:24:48.777Z,100902.06
2023-01-22T08:27:20.890Z,100904.19
2023-01-22T08:29:50.500Z,100906.44
2023-01-22T08:32:21.328Z,100904.78
2023-01-22T08:34:54.233Z,100909.63
2023-01-22T08:37:23.860Z,100911.13
2023-01-22T08:39:53.486Z,100917.66
2023-01-22T08:42:25.683Z,100905.06
2023-01-22T08:44:55.266Z,100912.31
2023-01-22T08:47:24.828Z,100918.34
2023-01-22T08:49:54.355Z,100917.94
2023-01-22T08:52:23.906Z,100919.06
2023-01-22T08:54:53.793Z,100918.59
2023-01-22T08:57:26.084Z,100920.28
2023-01-22T09:00:01.166Z,100925.97
2023-01-22T09:02:31.491Z,100938.69
2023-01-22T09:05:01.099Z,100919.06
2023-01-22T09:07:30.660Z,100930.41
2023-01-22T09:10:00.211Z,100930.16
2023-01-22T09:12:32.574Z,100934.19
2023-01-22T09:15:02.098Z,100932.56
2023-01-22T09:17:31.667Z,100937.94
2023-01-22T09:20:01.201Z,100934.22
2023-01-22T09:22:30.751Z,100931.13
2023-01-22T09:25:00.304Z,100930.94
2023-01-22T09:27:32.447Z,100927.91
2023-01-22T09:30:02.484Z,100934.22
2023-01-22T09:32:32.173Z,100937.38
2023-01-22T09:35:01.707Z,100929.91
2023-01-22T09:37:32.408Z,100935.22
2023-01-22T09:40:01.967Z,100932.03
2023-01-22T09:42:40.398Z,100940.41
2023-01-22T09:45:15.032Z,100938.59
2023-01-22T09:47:47.705Z,100944.75
2023-01-22T09:50:22.482Z,100946.78
2023-01-22T09:52:54.079Z,100961.66
2023-01-22T09:55:26.848Z,100959.13
2023-01-22T09:58:03.008Z,100955.59
2023-01-22T10:00:40.791Z,100951.34
2023-01-22T10:03:18.489Z,100953.69
2023-01-22T10:05:53.948Z,100950.97
2023-01-22T10:08:26.375Z,100946.44
2023-01-22T10:10:57.072Z,100941.88
2023-01-22T10:13:32.252Z,100954.91
2023-01-22T10:16:02.114Z,100943.03
2023-01-22T10:18:37.744Z,100945.31
2023-01-22T10:21:08.245Z,100954.00
2023-01-22T10:23:37.959Z,100948.72
2023-01-22T10:26:17.017Z,100956.56
2023-01-22T10:28:53.019Z,100948.59
2023-01-22T10:31:27.892Z,100959.25
2023-01-22T10:34:02.461Z,100956.50
2023-01-22T10:36:33.441Z,100955.63
2023-01-22T10:39:09.434Z,100957.03
2023-01-22T10:41:39.066Z,100965.34
2023-01-22T10:44:21.658Z,100955.50
2023-01-22T10:46:51.772Z,100959.75
2023-01-22T10:49:23.352Z,100957.22
2023-01-22T10:51:56.501Z,100955.50
2023-01-22T10:54:31.926Z,100953.09
2023-01-22T10:57:13.072Z,100959.38
2023-01-22T10:59:51.725Z,100954.16
2023-01-22T11:02:24.539Z,100952.84
2023-01-22T11:04:54.501Z,100959.91
2023-01-22T11:07:27.156Z,100956.91
2023-01-22T11:10:05.958Z,100959.25
2023-01-22T11:12:40.649Z,100946.56
2023-01-22T11:15:23.988Z,100947.09
2023-01-22T11:17:55.782Z,100946.44
2023-01-22T11:20:30.185Z,100938.25
2023-01-22T11:23:16.440Z,100945.03
2023-01-22T11:25:50.606Z,100941.44
2023-01-22T11:28:31.298Z,100946.44
2023-01-22T11:31:14.295Z,100938.97
2023-01-22T11:33:57.949Z,100931.78
2023-01-22T11:36:36.090Z,100940.03
2023-01-22T11:39:16.525Z,100939.31
2023-01-22T11:41:59.162Z,100939.31
2023-01-22T11:44:43.140Z,100940.06
2023-01-22T11:47:35.912Z,100939.63
2023-01-22T11:50:24.497Z,100939.16
2023-01-22T11:53:01.222Z,100936.66
2023-01-22T11:56:01.270Z,100943.97
2023-01-22T11:58:41.352Z,100941.66
2023-01-22T12:01:21.367Z,100941.16
2023-01-22T12:04:14.780Z,100937.63
2023-01-22T12:07:22.335Z,100936.53
2023-01-22T12:10:01.125Z,100942.06
2023-01-22T12:12:44.928Z,100938.72
2023-01-22T12:15:32.210Z,100932.81
2023-01-22T12:18:21.554Z,100937.88
2023-01-22T12:21:09.249Z,100942.75
2023-01-22T12:23:43.439Z,100946.47
2023-01-22T12:26:17.741Z,100940.75
2023-01-22T12:28:52.807Z,100940.41
2023-01-22T12:31:29.441Z,100938.34
2023-01-22T12:34:03.253Z,100939.72
2023-01-22T12:36:36.736Z,100930.28
2023-01-22T12:39:17.359Z,100945.44
2023-01-22T12:41:53.752Z,100941.88
2023-01-22T12:44:39.677Z,100946.38
2023-01-22T12:47:17.471Z,100948.31
2023-01-22T12:49:48.605Z,100944.13
2023-01-22T12:52:45.143Z,100952.88
2023-01-22T12:55:26.217Z,100944.56
2023-01-22T12:57:56.049Z,100943.25
2023-01-22T13:00:30.630Z,100943.69
2023-01-22T13:03:01.192Z,100944.22
2023-01-22T13:05:45.642Z,100946.81
2023-01-22T13:08:42.032Z,100952.13
2023-01-22T13:11:13.914Z,100945.72
2023-01-22T13:13:52.166Z,100958.09
2023-01-22T13:16:25.682Z,100959.94
2023-01-22T13:18:59.849Z,100959.91
2023-01-22T13:21:32.367Z,100959.03
2023-01-22T13:24:07.117Z,100956.28
2023-01-22T13:26:40.052Z,100967.38
2023-01-22T13:29:28.081Z,100958.00
2023-01-22T13:31:59.439Z,100965.00
2023-01-22T13:34:30.541Z,100968.41
2023-01-22T13:37:00.335Z,100970.69
2023-01-22T13:39:34.917Z,100976.75
2023-01-22T13:42:07.643Z,100969.56
2023-01-22T13:44:40.330Z,100977.00
2023-01-22T13:47:10.533Z,100988.50
2023-01-22T13:49:45.746Z,100986.53
2023-01-22T13:52:21.447Z,100981.72
2023-01-22T13:54:58.203Z,100977.84
2023-01-22T13:57:30.404Z,100977.78
2023-01-22T14:00:01.777Z,100976.66
2023-01-22T14:02:34.691Z,100975.16
2023-01-22T14:05:04.941Z,100978.63
2023-01-22T14:07:36.898Z,100973.84
2023-01-22T14:10:18.663Z,100984.78
2023-01-22T14:12:48.726Z,100984.78
2023-01-22T14:15:19.955Z,100980.00
2023-01-22T14:17:50.717Z,100986.84
2023-01-22T14:20:21.527Z,100983.28
2023-01-22T14:22:51.325Z,100991.78
2023-01-22T14:25:23.491Z,100989.69
2023-01-22T14:27:53.572Z,100989.47
2023-01-22T14:30:23.556Z,100994.47
2023-01-22T14:32:53.067Z,100998.22
2023-01-22T14:35:24.801Z,100997.44
2023-01-22T14:37:55.161Z,100998.34
2023-01-22T14:40:30.331Z,101004.44
2023-01-22T14:43:02.590Z,100998.53
2023-01-22T14:45:32.398Z,101013.06
2023-01-22T14:48:04.162Z,101011.84
2023-01-22T14:50:33.809Z,101023.00
2023-01-22T14:53:03.372Z,101025.78
2023-01-22T14:55:35.609Z,101033.03
2023-01-22T14:58:06.123Z,101035.72
2023-01-22T15:00:35.943Z,101043.34
2023-01-22T15:03:05.617Z,101047.28
2023-01-22T15:05:35.875Z,101053.03
2023-01-22T15:08:06.516Z,101051.25
2023-01-22T15:10:38.730Z,101054.47
2023-01-22T15:13:08.335Z,101061.59
2023-01-22T15:15:37.932Z,101063.53
2023-01-22T15:18:07.692Z,101071.31
2023-01-22T15:20:37.341Z,101070.50
2023-01-22T15:23:06.876Z,101072.53
2023-01-22T15:25:39.030Z,101068.06
2023-01-22T15:28:08.633Z,101078.34
2023-01-22T15:30:38.226Z,101080.56
2023-01-22T15:33:07.878Z,101088.00
2023-01-22T15:35:37.479Z,101085.97
2023-01-22T15:38:06.983Z,101090.59
2023-01-22T15:40:39.588Z,101087.84
2023-01-22T15:43:09.159Z,101094.19
2023-01-22T15:45:38.741Z,101097.97
2023-01-22T15:48:08.998Z,101094.16
2023-01-22T15:50:38.560Z,101097.81
2023-01-22T15:53:08.164Z,101103.06
2023-01-22T15:55:40.354Z,101106.75
2023-01-22T15:58:10.156Z,101112.25
2023-01-22T16:00:39.692Z,101113.88
2023-01-22T16:03:09.355Z,101113.63
2023-01-22T16:05:39.350Z,101118.28
2023-01-22T16:08:08.981Z,101110.47
2023-01-22T16:10:41.097Z,101116.09
2023-01-22T16:13:10.628Z,101118.69
2023-01-22T16:15:40.167Z,101122.91
2023-01-22T16:18:09.690Z,101124.66
2023-01-22T16:20:39.241Z,101138.44
2023-01-22T16:23:09.185Z,101132.84
2023-01-22T16:25:42.176Z,101133.75
2023-01-22T16:28:11.711Z,101146.63
2023-01-22T16:30:43.031Z,101145.44
2023-01-22T16:33:20.540Z,101145.44
2023-01-22T16:35:50.212Z,101144.38
2023-01-22T16:38:19.745Z,101140.69
2023-01-22T16:40:53.111Z,101143.09
2023-01-22T16:43:22.780Z,101154.53
2023-01-22T16:45:52.364Z,101161.72
2023-01-22T16:48:21.911Z,101158.13
2023-01-22T16:50:51.496Z,101153.19
2023-01-22T16:53:21.051Z,101154.88
2023-01-22T16:55:53.213Z,101158.59
2023-01-22T16:58:22.797Z,101162.31
2023-01-22T17:00:52.367Z,101161.06
2023-01-22T17:03:21.928Z,101165.19
2023-01-22T17:05:51.451Z,101173.53
2023-01-22T17:08:20.963Z,101166.16
2023-01-22T17:10:53.087Z,101171.78
2023-01-22T17:13:23.188Z,101174.53
2023-01-22T17:15:53.695Z,101187.53
2023-01-22T17:18:23.308Z,101186.88
2023-01-22T17:21:01.954Z,101176.22
2023-01-22T17:23:32.035Z,101177.91
2023-01-22T17:26:07.910Z,101177.47
2023-01-22T17:28:39.592Z,101176.47
2023-01-22T17:31:11.759Z,101175.59
2023-01-22T17:33:41.895Z,101176.63
2023-01-22T17:36:13.768Z,101176.28
2023-01-22T17:38:44.415Z,101175.72
2023-01-22T17:41:19.237Z,101182.44
2023-01-22T17:43:52.309Z,101187.28
2023-01-22T17:46:25.223Z,101192.97
2023-01-22T17:48:55.564Z,101190.91
2023-01-22T17:51:27.809Z,101200.53
2023-01-22T17:53:59.291Z,101204.75
2023-01-22T17:56:34.054Z,101204.75
2023-01-22T17:59:05.625Z,101204.25
2023-01-22T18:01:38.934Z,101203.44
2023-01-22T18:04:10.594Z,101204.59
2023-01-22T18:06:41.534Z,101209.94
2023-01-22T18:09:13.072Z,101206.63
2023-01-22T18:11:45.644Z,101207.09
2023-01-22T18:14:21.675Z,101212.78
2023-01-22T18:16:52.652Z,101218.06
2023-01-22T18:19:23.550Z,101218.00
2023-01-22T18:21:53.423Z,101217.13
2023-01-22T18:24:24.256Z,101211.63
2023-01-22T18:26:58.690Z,101211.84
2023-01-22T18:29:28.619Z,101218.41
2023-01-22T18:31:58.265Z,101214.81
2023-01-22T18:34:27.891Z,101206.97
2023-01-22T18:36:57.434Z,101212.00
2023-01-22T18:39:26.984Z,101213.06
2023-01-22T18:41:59.231Z,101222.41
2023-01-22T18:44:29.194Z,101223.47
2023-01-22T18:47:00.731Z,101216.81
2023-01-22T18:49:30.466Z,101225.56
2023-01-22T18:52:01.056Z,101224.47
2023-01-22T18:54:31.128Z,101229.50
2023-01-22T18:57:03.253Z,101224.94
2023-01-22T18:59:32.801Z,101227.44
2023-01-22T19:02:02.440Z,101225.91
2023-01-22T19:04:32.307Z,101218.94
2023-01-22T19:07:01.848Z,101216.09
2023-01-22T19:09:31.933Z,101218.19
2023-01-22T19:12:04.039Z,101216.19
2023-01-22T19:14:36.304Z,101211.53
2023-01-22T19:17:06.953Z,101213.28
2023-01-22T19:19:36.553Z,101213.75
2023-01-22T19:22:06.107Z,101217.22
2023-01-22T19:24:35.707Z,101220.44
2023-01-22T19:27:08.219Z,101227.34
2023-01-22T19:29:37.779Z,101226.38
2023-01-22T19:32:11.271Z,101223.38
2023-01-22T19:34:41.094Z,101228.66
2023-01-22T19:37:11.547Z,101234.16
2023-01-22T19:39:41.694Z,101230.47
2023-01-22T19:42:14.554Z,101229.78
2023-01-22T19:44:45.471Z,101230.75
2023-01-22T19:47:15.445Z,101223.38
2023-01-22T19:49:45.316Z,101233.91
2023-01-22T19:52:15.490Z,101234.47
2023-01-22T19:54:48.237Z,101243.84
2023-01-22T19:57:20.391Z,101239.34
2023-01-22T19:59:55.041Z,101242.22
2023-01-22T20:02:24.588Z,101241.16
2023-01-22T20:04:54.797Z,101227.28
2023-01-22T20:07:25.253Z,101238.75
2023-01-22T20:09:55.272Z,101238.38
2023-01-22T20:12:27.510Z,101254.38
2023-01-22T20:14:57.149Z,101249.88
2023-01-22T20:17:26.689Z,101256.31
2023-01-22T20:19:56.511Z,101263.41
2023-01-22T20:22:26.053Z,101263.69
2023-01-22T20:24:55.585Z,101257.78
2023-01-22T20:27:27.713Z,101268.19
2023-01-22T20:29:57.367Z,101272.88
2023-01-22T20:32:28.654Z,101260.03
2023-01-22T20:34:58.236Z,101265.69
2023-01-22T20:37:27.959Z,101276.91
2023-01-22T20:39:58.918Z,101272.69
2023-01-22T20:42:31.066Z,101271.31
2023-01-22T20:45:00.840Z,101268.75
2023-01-22T20:47:30.385Z,101275.13
2023-01-22T20:49:59.899Z,101269.50
2023-01-22T20:52:29.451Z,101261.44
2023-01-22T20:55:01.886Z,101259.88
2023-01-22T20:57:35.175Z,101266.22
2023-01-22T21:00:04.879Z,101261.06
2023-01-22T21:02:34.526Z,101262.41
2023-01-22T21:05:04.253Z,101269.03
2023-01-22T21:07:33.783Z,101272.75
2023-01-22T21:10:03.568Z,101278.97
2023-01-22T21:12:35.682Z,101280.94
2023-01-22T21:15:05.747Z,101280.97
2023-01-22T21:17:35.933Z,101274.22
2023-01-22T21:20:06.244Z,101280.66
2023-01-22T21:22:36.081Z,101280.97
2023-01-22T21:25:05.881Z,101287.75
2023-01-22T21:27:37.996Z,101280.53
2023-01-22T21:30:09.186Z,101288.94
2023-01-22T21:32:38.701Z,101272.59
2023-01-22T21:35:08.891Z,101284.28
2023-01-22T21:37:38.431Z,101288.38
2023-01-22T21:40:12.470Z,101286.22
2023-01-22T21:42:57.159Z,101286.44
2023-01-22T21:45:39.418Z,101294.59
2023-01-22T21:48:09.751Z,101293.28
2023-01-22T21:50:41.996Z,101294.09
2023-01-22T21:53:13.112Z,101294.56
2023-01-22T21:55:42.641Z,101288.06
2023-01-22T21:58:15.201Z,101286.66
2023-01-22T22:00:44.755Z,101289.19
2023-01-22T22:03:16.031Z,101287.50
2023-01-22T22:05:45.710Z,101286.63
2023-01-22T22:08:15.253Z,101293.16
2023-01-22T22:10:51.729Z,101284.44
2023-01-22T22:13:24.304Z,101290.97
2023-01-22T22:15:53.868Z,101281.22
2023-01-22T22:18:23.550Z,101289.50
2023-01-22T22:20:53.121Z,101293.44
2023-01-22T22:23:22.637Z,101285.72
2023-01-22T22:25:52.156Z,101287.78
2023-01-22T22:28:24.241Z,101294.44
2023-01-22T22:30:54.084Z,101293.72
2023-01-22T22:33:23.705Z,101298.19
2023-01-22T22:35:53.241Z,101298.16
2023-01-22T22:38:22.751Z,101294.28
2023-01-22T22:41:00.838Z,101287.75
2023-01-22T22:43:36.430Z,101282.81
2023-01-22T22:46:07.260Z,101275.63
2023-01-22T22:48:37.292Z,101278.56
2023-01-22T22:51:12.907Z,101276.63
2023-01-22T22:53:42.804Z,101273.94
2023-01-22T22:56:13.594Z,101280.66
2023-01-22T22:58:45.683Z,101276.69
2023-01-22T23:01:19.280Z,101277.75
2023-01-22T23:03:49.296Z,101281.53
2023-01-22T23:06:21.489Z,101285.03
2023-01-22T23:08:55.385Z,101288.63
2023-01-22T23:11:27.210Z,101281.13
2023-01-22T23:14:01.516Z,101279.44
2023-01-22T23:16:32.584Z,101281.66
2023-01-22T23:19:04.124Z,101289.03
2023-01-22T23:21:35.184Z,101285.28
2023-01-22T23:24:06.573Z,101290.47
2023-01-22T23:26:36.587Z,101285.91
2023-01-22T23:29:11.016Z,101285.28
2023-01-22T23:31:41.636Z,101299.00
2023-01-22T23:34:16.572Z,101298.88
2023-01-22T23:36:48.332Z,101298.31
2023-01-22T23:39:20.061Z,101303.22
2023-01-22T23:41:49.708Z,101311.50
2023-01-22T23:44:21.833Z,101318.91
2023-01-22T23:46:51.370Z,101312.28
2023-01-22T23:49:20.980Z,101311.03
2023-01-22T23:51:50.528Z,101313.38
2023-01-22T23:54:20.056Z,101311.19
2023-01-22T23:56:49.578Z,101318.69
2023-01-22T23:59:23.527Z,101310.09
